Time;durP1;ratioP1;P1;durP2;ratioP2;P2;SDS_P1;SDS_P2;PMS_P1;PMS_P2;Temp;Humidity;BMP_temperature;BMP_pressure;BME280_temperature;BME280_humidity;BME280_pressure;Samples;Min_cycle;Max_cycle;Signal;HPM_P1;HPM_P2
2021/05/11 00:00:44;;;;;;;1.75;1.00;;;17.80;99.90;;;;;;2096389;28;20115;-66
2021/05/11 00:01:45;;;;;;;1.48;0.80;;;17.80;99.90;;;;;;2096122;28;20025;-67
2021/05/11 00:02:45;;;;;;;1.63;1.08;;;17.80;99.90;;;;;;2095424;28;20032;-66
2021/05/11 00:03:47;;;;;;;0.70;0.70;;;17.90;99.90;;;;;;2094546;28;20498;-66
2021/05/11 00:04:48;;;;;;;1.10;1.00;;;17.90;99.90;;;;;;2094760;28;20043;-66
2021/05/11 00:05:48;;;;;;;0.80;0.80;;;17.90;99.90;;;;;;2096193;28;20029;-66
2021/05/11 00:06:49;;;;;;;1.98;0.98;;;17.80;99.90;;;;;;2095068;28;20435;-66
2021/05/11 00:07:49;;;;;;;1.08;0.90;;;17.90;99.90;;;;;;2087756;28;20033;-66
2021/05/11 00:08:50;;;;;;;3.28;1.00;;;17.80;99.90;;;;;;2087854;28;20051;-66
2021/05/11 00:09:51;;;;;;;0.95;0.85;;;17.80;99.90;;;;;;2087761;28;20728;-66
2021/05/11 00:10:51;;;;;;;1.70;1.17;;;17.80;99.90;;;;;;2087803;28;20032;-66
2021/05/11 00:11:52;;;;;;;1.33;0.95;;;17.80;99.90;;;;;;2087818;28;20423;-66
2021/05/11 00:12:53;;;;;;;1.33;1.23;;;17.80;99.90;;;;;;2087588;28;20025;-66
2021/05/11 00:13:54;;;;;;;1.25;1.15;;;17.80;99.90;;;;;;2089850;28;20017;-66
2021/05/11 00:14:54;;;;;;;2.67;1.20;;;17.80;99.90;;;;;;2087773;28;20040;-66
2021/05/11 00:15:55;;;;;;;2.22;0.95;;;17.80;99.90;;;;;;2087702;28;20020;-67
2021/05/11 00:16:55;;;;;;;0.80;0.80;;;17.80;99.90;;;;;;2088039;28;20116;-66
2021/05/11 00:17:56;;;;;;;1.13;1.10;;;17.80;99.90;;;;;;2087676;28;20468;-66
2021/05/11 00:18:58;;;;;;;1.98;1.20;;;17.80;99.90;;;;;;2088049;28;20031;-66
2021/05/11 00:19:59;;;;;;;1.88;1.00;;;17.80;99.90;;;;;;2087519;28;20044;-66
2021/05/11 00:21:00;;;;;;;1.00;0.90;;;17.80;99.90;;;;;;2087963;28;20048;-66
2021/05/11 00:22:01;;;;;;;1.30;1.02;;;17.80;99.90;;;;;;2092300;28;20632;-66
2021/05/11 00:23:02;;;;;;;1.73;0.90;;;17.80;99.90;;;;;;2095107;28;20028;-66
2021/05/11 00:24:03;;;;;;;2.60;1.17;;;17.80;99.90;;;;;;2095792;28;20034;-66
2021/05/11 00:25:04;;;;;;;1.42;0.90;;;17.80;99.90;;;;;;2091079;28;20108;-66
2021/05/11 00:26:05;;;;;;;1.20;1.08;;;17.80;99.90;;;;;;2087763;28;20029;-66
2021/05/11 00:27:05;;;;;;;2.67;1.23;;;17.90;99.90;;;;;;2088721;28;20029;-66
2021/05/11 00:28:06;;;;;;;1.20;1.00;;;17.80;99.90;;;;;;2096104;28;20032;-66
2021/05/11 00:29:07;;;;;;;1.60;1.10;;;17.80;99.90;;;;;;2095826;28;20024;-66
2021/05/11 00:30:10;;;;;;;1.30;1.20;;;17.70;99.90;;;;;;2089725;28;20044;-66
2021/05/11 00:31:10;;;;;;;1.13;1.00;;;17.70;99.90;;;;;;2087627;28;20045;-66
2021/05/11 00:32:11;;;;;;;1.20;1.05;;;17.70;99.90;;;;;;2087154;28;20036;-66
2021/05/11 00:33:12;;;;;;;7.70;1.15;;;17.70;99.90;;;;;;2087639;28;20028;-66
2021/05/11 00:34:12;;;;;;;2.08;1.00;;;17.70;99.90;;;;;;2087836;28;20021;-66
2021/05/11 00:35:13;;;;;;;1.45;1.00;;;17.70;99.90;;;;;;2087594;28;20074;-66
2021/05/11 00:36:13;;;;;;;1.27;1.17;;;17.70;99.90;;;;;;2087860;28;20071;-67
2021/05/11 00:37:14;;;;;;;0.95;0.95;;;17.70;99.90;;;;;;2087707;28;20078;-66
2021/05/11 00:38:14;;;;;;;1.98;1.45;;;17.70;99.90;;;;;;2087582;28;20064;-67
2021/05/11 00:39:15;;;;;;;1.45;1.33;;;17.70;99.90;;;;;;2087544;28;20033;-67
2021/05/11 00:40:15;;;;;;;1.90;1.20;;;17.70;99.90;;;;;;2087328;28;20070;-67
2021/05/11 00:41:16;;;;;;;1.60;1.45;;;17.60;99.90;;;;;;2087263;28;20057;-67
2021/05/11 00:42:17;;;;;;;2.10;1.42;;;17.60;99.90;;;;;;2087290;28;20025;-67
2021/05/11 00:43:17;;;;;;;2.58;1.40;;;17.60;99.90;;;;;;2087570;28;20039;-66
2021/05/11 00:44:19;;;;;;;1.63;1.27;;;17.60;99.90;;;;;;2087760;28;20029;-67
2021/05/11 00:45:20;;;;;;;2.28;1.60;;;17.60;99.90;;;;;;2087513;28;20676;-67
2021/05/11 00:46:20;;;;;;;3.47;1.67;;;17.60;99.90;;;;;;2087608;28;20128;-67
2021/05/11 00:47:21;;;;;;;1.83;1.63;;;17.60;99.90;;;;;;2087371;28;20025;-67
2021/05/11 00:48:21;;;;;;;3.15;1.40;;;17.60;99.90;;;;;;2088072;28;20033;-67
2021/05/11 00:49:23;;;;;;;2.28;1.42;;;17.50;99.90;;;;;;2087372;28;20481;-67
2021/05/11 00:50:24;;;;;;;2.00;1.30;;;17.50;99.90;;;;;;2087418;28;20027;-67
2021/05/11 00:51:24;;;;;;;1.92;1.65;;;17.50;99.90;;;;;;2094309;28;20025;-67
2021/05/11 00:52:26;;;;;;;1.85;1.40;;;17.50;99.90;;;;;;2091709;28;20521;-68
2021/05/11 00:53:26;;;;;;;2.08;1.60;;;17.50;99.90;;;;;;2087159;28;20024;-68
2021/05/11 00:54:27;;;;;;;2.70;1.42;;;17.50;99.90;;;;;;2087005;28;20021;-67
2021/05/11 00:55:28;;;;;;;1.58;1.42;;;17.50;99.90;;;;;;2091786;28;20060;-67
2021/05/11 00:56:29;;;;;;;1.80;1.60;;;17.50;99.90;;;;;;2095680;28;20055;-67
2021/05/11 00:57:31;;;;;;;2.05;1.48;;;17.50;99.90;;;;;;2091481;28;20107;-67
2021/05/11 00:58:32;;;;;;;1.90;1.70;;;17.50;99.90;;;;;;2087511;28;20404;-67
2021/05/11 00:59:33;;;;;;;2.03;1.42;;;17.50;99.90;;;;;;2087710;28;20033;-67
2021/05/11 01:00:34;;;;;;;1.60;1.50;;;17.50;99.90;;;;;;2087227;28;20049;-67
2021/05/11 01:01:34;;;;;;;1.60;1.40;;;17.50;99.90;;;;;;2087756;28;20335;-66
2021/05/11 01:02:36;;;;;;;1.35;1.33;;;17.50;99.90;;;;;;2086196;28;20029;-67
2021/05/11 01:03:36;;;;;;;2.13;1.63;;;17.50;99.90;;;;;;2088132;28;20113;-66
2021/05/11 01:04:37;;;;;;;2.55;1.40;;;17.60;99.90;;;;;;2087437;28;20086;-66
2021/05/11 01:05:38;;;;;;;2.08;1.80;;;17.60;99.90;;;;;;2087536;28;20108;-66
2021/05/11 01:06:39;;;;;;;2.20;1.70;;;17.50;99.90;;;;;;2087192;28;20036;-66
2021/05/11 01:07:40;;;;;;;1.55;1.45;;;17.50;99.90;;;;;;2087616;28;20052;-67
2021/05/11 01:08:41;;;;;;;1.85;1.70;;;17.50;99.90;;;;;;2090250;28;20081;-66
2021/05/11 01:09:41;;;;;;;2.22;1.90;;;17.50;99.90;;;;;;2095803;28;20024;-66
2021/05/11 01:10:42;;;;;;;1.73;1.63;;;17.50;99.90;;;;;;2095334;28;20035;-67
2021/05/11 01:11:45;;;;;;;3.00;1.80;;;17.50;99.90;;;;;;2088089;28;20619;-66
2021/05/11 01:12:46;;;;;;;1.63;1.52;;;17.40;99.90;;;;;;2086697;28;20032;-66
2021/05/11 01:13:46;;;;;;;2.38;1.90;;;17.40;99.90;;;;;;2089257;28;20021;-67
2021/05/11 01:14:47;;;;;;;3.10;1.70;;;17.40;99.90;;;;;;2087185;28;20028;-66
2021/05/11 01:15:49;;;;;;;5.13;1.60;;;17.40;99.90;;;;;;2087676;28;20436;-67
2021/05/11 01:16:54;;;;;;;2.38;1.98;;;17.40;99.90;;;;;;2087438;28;20347;-67
2021/05/11 01:18:01;;;;;;;2.97;1.98;;;17.40;99.90;;;;;;2087649;28;20029;-67
2021/05/11 01:19:16;;;;;;;2.60;1.83;;;17.40;99.90;;;;;;2087535;28;20023;-67
2021/05/11 01:20:27;;;;;;;2.03;1.90;;;17.40;99.90;;;;;;2093118;28;20113;-66
2021/05/11 01:21:44;;;;;;;1.80;1.55;;;17.30;99.90;;;;;;2095423;28;20024;-67
2021/05/11 01:23:05;;;;;;;2.47;2.10;;;17.30;99.90;;;;;;2094846;28;20433;-67
2021/05/11 01:24:16;;;;;;;3.42;2.00;;;17.30;99.90;;;;;;2085080;28;20033;-66
2021/05/11 01:25:24;;;;;;;2.78;1.92;;;17.20;99.90;;;;;;2093910;28;20384;-67
2021/05/11 01:26:29;;;;;;;2.50;2.17;;;17.20;99.90;;;;;;2095325;28;20016;-67
2021/05/11 01:28:44;;;;;;;3.95;1.85;;;17.20;99.90;;;;;;2095367;28;20025;-67
2021/05/11 01:30:02;;;;;;;1.98;1.85;;;17.20;99.90;;;;;;2092033;28;20059;-66
2021/05/11 01:44:04;;;;;;;2.00;1.65;;;17.10;99.90;;;;;;2087454;28;20029;-67
2021/05/11 01:47:34;;;;;;;2.75;1.95;;;16.90;99.90;;;;;;2095233;28;19931;-67
2021/05/11 02:11:22;;;;;;;1.92;1.80;;;17.00;99.90;;;;;;2096864;28;20021;-67
2021/05/11 02:22:56;;;;;;;4.60;2.33;;;16.90;99.90;;;;;;2094015;28;20016;-67
2021/05/11 02:23:57;;;;;;;2.42;1.92;;;16.90;99.90;;;;;;2096804;28;20029;-67
2021/05/11 02:24:58;;;;;;;3.17;1.90;;;16.90;99.90;;;;;;2094106;28;20052;-67
2021/05/11 02:25:59;;;;;;;3.97;2.10;;;17.00;99.90;;;;;;2090801;28;20036;-67
2021/05/11 02:26:59;;;;;;;2.13;1.90;;;17.00;99.90;;;;;;2089764;28;20033;-67
2021/05/11 02:28:00;;;;;;;2.13;2.03;;;17.00;99.90;;;;;;2090090;28;20035;-66
2021/05/11 02:29:01;;;;;;;3.13;2.08;;;17.00;99.90;;;;;;2090083;28;20103;-66
2021/05/11 02:30:02;;;;;;;1.92;1.80;;;17.00;99.90;;;;;;2089923;28;20024;-66
2021/05/11 02:31:02;;;;;;;2.58;2.03;;;17.00;99.90;;;;;;2089892;28;20652;-66
2021/05/11 02:32:03;;;;;;;3.53;2.33;;;17.00;99.90;;;;;;2090226;28;20377;-66
2021/05/11 02:33:04;;;;;;;2.33;2.10;;;17.00;99.90;;;;;;2089315;28;20035;-66
2021/05/11 02:34:04;;;;;;;2.10;1.98;;;17.00;99.90;;;;;;2089997;28;20108;-66
2021/05/11 02:35:06;;;;;;;2.13;1.83;;;17.00;99.90;;;;;;2090062;28;20104;-66
2021/05/11 02:36:07;;;;;;;3.40;2.33;;;17.00;99.90;;;;;;2089135;28;20020;-66
2021/05/11 02:37:08;;;;;;;3.00;2.20;;;17.00;99.90;;;;;;2089282;28;20037;-66
2021/05/11 02:38:08;;;;;;;4.57;2.58;;;17.00;99.90;;;;;;2089032;28;20033;-67
2021/05/11 02:39:09;;;;;;;2.60;2.40;;;17.00;99.90;;;;;;2089214;28;20370;-67
2021/05/11 02:40:11;;;;;;;2.30;2.20;;;17.00;99.90;;;;;;2093777;28;20024;-67
2021/05/11 02:41:12;;;;;;;2.50;2.30;;;17.00;99.90;;;;;;2094029;28;20446;-66
2021/05/11 02:42:13;;;;;;;3.22;2.05;;;17.00;99.90;;;;;;2088889;28;20090;-66
2021/05/11 02:43:20;;;;;;;2.65;2.45;;;17.00;99.90;;;;;;2089141;28;20029;-66
2021/05/11 02:44:21;;;;;;;3.22;2.35;;;17.00;99.90;;;;;;2090176;28;20033;-66
2021/05/11 02:45:22;;;;;;;2.50;2.30;;;17.00;99.90;;;;;;2089867;28;20031;-66
2021/05/11 02:46:22;;;;;;;2.15;1.95;;;17.00;99.90;;;;;;2090022;28;20036;-66
2021/05/11 02:47:23;;;;;;;2.05;1.95;;;17.10;99.90;;;;;;2089755;28;20029;-66
2021/05/11 02:48:23;;;;;;;2.63;2.35;;;17.00;99.90;;;;;;2095080;28;20020;-66
2021/05/11 02:49:24;;;;;;;2.33;2.22;;;17.00;99.90;;;;;;2097481;28;20067;-66
2021/05/11 02:50:28;;;;;;;2.75;2.25;;;17.00;99.90;;;;;;2098193;28;20028;-66
2021/05/11 02:51:28;;;;;;;2.28;2.08;;;17.00;99.90;;;;;;2089903;28;20543;-66
2021/05/11 02:52:29;;;;;;;2.58;2.30;;;17.00;99.90;;;;;;2089410;28;20368;-67
2021/05/11 02:53:30;;;;;;;3.05;2.58;;;17.10;99.90;;;;;;2089848;28;20025;-66
2021/05/11 02:54:30;;;;;;;2.40;2.20;;;17.10;99.90;;;;;;2089978;28;20721;-67
2021/05/11 02:55:31;;;;;;;2.60;2.40;;;17.10;99.90;;;;;;2094402;28;20388;-66
2021/05/11 02:56:32;;;;;;;2.70;2.50;;;17.00;99.90;;;;;;2097457;28;20020;-66
2021/05/11 02:57:32;;;;;;;2.75;2.55;;;17.10;99.90;;;;;;2098136;28;20032;-66
2021/05/11 02:58:34;;;;;;;2.92;2.17;;;17.00;99.90;;;;;;2098238;28;20412;-66
2021/05/11 02:59:35;;;;;;;2.15;2.05;;;17.10;99.90;;;;;;2089786;28;20346;-66
2021/05/11 03:00:35;;;;;;;2.30;2.20;;;17.10;99.90;;;;;;2089533;28;20035;-66
2021/05/11 03:01:36;;;;;;;2.17;2.08;;;17.00;99.90;;;;;;2089238;28;20768;-66
2021/05/11 03:02:36;;;;;;;2.85;2.30;;;17.00;99.90;;;;;;2088463;28;20017;-67
2021/05/11 03:03:37;;;;;;;2.58;2.38;;;17.10;99.90;;;;;;2089027;28;20082;-67
2021/05/11 03:04:37;;;;;;;2.45;2.25;;;17.10;99.90;;;;;;2088795;28;20025;-67
2021/05/11 03:05:38;;;;;;;2.67;2.47;;;17.00;99.90;;;;;;2088663;28;20075;-67
2021/05/11 03:06:38;;;;;;;2.53;2.30;;;17.00;99.90;;;;;;2088798;28;20025;-67
2021/05/11 03:07:39;;;;;;;2.97;2.70;;;17.00;99.90;;;;;;2089217;28;20108;-67
2021/05/11 03:08:42;;;;;;;3.03;2.75;;;17.00;99.90;;;;;;2088763;28;20079;-66
2021/05/11 03:09:43;;;;;;;3.75;2.90;;;17.10;99.90;;;;;;2088760;28;20031;-66
2021/05/11 03:10:43;;;;;;;2.78;2.50;;;17.00;99.90;;;;;;2088478;28;20028;-67
2021/05/11 03:11:44;;;;;;;2.80;2.60;;;17.00;99.90;;;;;;2087527;28;20045;-67
2021/05/11 03:12:45;;;;;;;3.85;2.30;;;17.00;99.90;;;;;;2087666;28;20096;-67
2021/05/11 03:13:45;;;;;;;3.30;2.97;;;17.00;99.90;;;;;;2088773;28;20083;-67
2021/05/11 03:14:46;;;;;;;3.38;2.47;;;17.10;99.90;;;;;;2095992;28;20513;-67
2021/05/11 03:15:46;;;;;;;3.67;3.00;;;17.00;99.90;;;;;;2088701;28;20168;-67
2021/05/11 03:16:48;;;;;;;2.60;2.40;;;17.10;99.90;;;;;;2088106;28;20029;-67
2021/05/11 03:17:49;;;;;;;2.67;2.47;;;17.10;99.90;;;;;;2093357;28;20072;-67
2021/05/11 03:18:49;;;;;;;2.65;2.45;;;17.10;99.90;;;;;;2094866;28;20024;-67
2021/05/11 03:19:50;;;;;;;3.30;3.00;;;17.00;99.90;;;;;;2095927;28;20024;-66
2021/05/11 03:20:50;;;;;;;2.80;2.60;;;17.00;99.90;;;;;;2096447;28;20031;-66
2021/05/11 03:21:51;;;;;;;2.72;2.53;;;17.00;99.90;;;;;;2092440;28;20055;-67
2021/05/11 03:22:51;;;;;;;3.97;3.00;;;17.00;99.90;;;;;;2093573;28;20020;-67
2021/05/11 03:23:52;;;;;;;3.08;2.83;;;17.10;99.90;;;;;;2089032;28;20047;-67
2021/05/11 03:24:52;;;;;;;3.97;2.92;;;17.10;99.90;;;;;;2093452;28;20025;-66
2021/05/11 03:25:53;;;;;;;2.72;2.53;;;17.10;99.90;;;;;;2096458;28;20446;-67
2021/05/11 03:26:53;;;;;;;2.80;2.60;;;17.00;99.90;;;;;;2090853;28;20025;-67
2021/05/11 03:27:54;;;;;;;5.68;3.20;;;17.00;99.90;;;;;;2095116;28;20062;-67
2021/05/11 03:28:55;;;;;;;3.72;3.40;;;17.00;99.90;;;;;;2087440;28;20491;-67
2021/05/11 03:29:55;;;;;;;3.83;3.45;;;17.00;99.90;;;;;;2087612;28;20038;-67
2021/05/11 03:30:56;;;;;;;3.45;3.15;;;17.00;99.90;;;;;;2088266;28;20033;-66
2021/05/11 03:31:56;;;;;;;3.70;2.90;;;17.00;99.90;;;;;;2088271;28;20075;-66
2021/05/11 03:32:57;;;;;;;4.18;3.20;;;17.00;99.90;;;;;;2088153;28;20032;-66
2021/05/11 03:33:57;;;;;;;3.35;2.72;;;17.10;99.90;;;;;;2089777;28;20033;-66
2021/05/11 03:34:58;;;;;;;3.40;3.15;;;17.00;99.90;;;;;;2091360;28;20516;-66
2021/05/11 03:35:58;;;;;;;3.90;3.60;;;17.00;99.90;;;;;;2096056;28;20020;-66
2021/05/11 03:37:00;;;;;;;4.47;2.83;;;17.10;99.90;;;;;;2096776;28;20036;-66
2021/05/11 03:38:01;;;;;;;3.95;3.65;;;17.00;99.90;;;;;;2095465;28;20028;-66
2021/05/11 03:39:07;;;;;;;3.70;3.22;;;17.00;99.90;;;;;;2095796;28;20016;-67
2021/05/11 03:40:08;;;;;;;3.50;3.20;;;17.00;99.90;;;;;;2096593;28;20106;-66
2021/05/11 03:41:09;;;;;;;4.93;3.05;;;17.00;99.90;;;;;;2096428;28;20031;-67
2021/05/11 03:42:23;;;;;;;3.30;3.03;;;17.00;99.90;;;;;;2095962;28;20052;-66
2021/05/11 03:43:31;;;;;;;3.58;3.28;;;17.00;99.90;;;;;;2096314;28;20099;-66
2021/05/11 03:44:33;;;;;;;3.28;2.97;;;17.00;99.90;;;;;;2095720;28;20094;-67
2021/05/11 03:45:38;;;;;;;2.88;2.67;;;17.00;99.90;;;;;;2095887;28;20021;-66
2021/05/11 03:46:39;;;;;;;2.60;2.40;;;17.00;99.90;;;;;;2096369;28;20025;-66
2021/05/11 03:47:44;;;;;;;4.13;3.45;;;17.00;99.90;;;;;;2091866;28;20641;-67
2021/05/11 03:48:45;;;;;;;2.85;2.63;;;17.00;99.90;;;;;;2088557;28;20066;-67
2021/05/11 03:49:46;;;;;;;3.10;2.90;;;17.00;99.90;;;;;;2088137;28;20028;-67
2021/05/11 03:50:46;;;;;;;3.30;3.05;;;17.00;99.90;;;;;;2090621;28;20397;-67
2021/05/11 03:51:48;;;;;;;3.08;2.88;;;17.00;99.90;;;;;;2096272;28;20025;-67
2021/05/11 03:52:48;;;;;;;4.10;3.53;;;17.00;99.90;;;;;;2089440;28;20051;-66
2021/05/11 03:53:49;;;;;;;3.20;3.00;;;17.00;99.90;;;;;;2088439;28;20067;-66
2021/05/11 03:54:49;;;;;;;3.38;3.10;;;17.00;99.90;;;;;;2088345;28;20463;-66
2021/05/11 03:55:51;;;;;;;3.50;3.20;;;17.00;99.90;;;;;;2094494;28;20048;-66
2021/05/11 03:56:51;;;;;;;3.70;3.20;;;17.00;99.90;;;;;;2087243;28;20110;-66
2021/05/11 03:57:52;;;;;;;3.47;3.15;;;17.00;99.90;;;;;;2087708;28;20075;-66
2021/05/11 03:58:53;;;;;;;2.78;2.58;;;16.90;99.90;;;;;;2087439;28;20029;-66
2021/05/11 03:59:54;;;;;;;3.55;3.17;;;17.00;99.90;;;;;;2087382;28;20052;-67
2021/05/11 04:00:54;;;;;;;4.60;3.42;;;17.00;99.90;;;;;;2087814;28;20024;-66
2021/05/11 04:01:55;;;;;;;3.38;3.08;;;16.90;99.90;;;;;;2088728;28;20489;-66
2021/05/11 04:02:55;;;;;;;3.80;3.50;;;17.00;99.90;;;;;;2095813;28;20020;-66
2021/05/11 04:03:56;;;;;;;3.00;2.75;;;17.00;99.90;;;;;;2091732;28;20025;-67
2021/05/11 04:04:57;;;;;;;3.17;2.97;;;16.90;99.90;;;;;;2088170;28;20031;-66
2021/05/11 04:06:00;;;;;;;3.05;2.75;;;17.00;99.90;;;;;;2087900;28;20139;-67
2021/05/11 04:07:00;;;;;;;3.17;2.88;;;16.90;99.90;;;;;;2087815;28;20020;-67
2021/05/11 04:08:01;;;;;;;3.17;2.97;;;16.90;99.90;;;;;;2088284;28;20052;-66
2021/05/11 04:09:15;;;;;;;3.47;3.05;;;16.90;99.90;;;;;;2087832;28;20102;-67
2021/05/11 04:10:28;;;;;;;3.28;2.88;;;16.90;99.90;;;;;;2088178;28;20495;-66
2021/05/11 04:16:23;;;;;;;3.05;2.83;;;16.90;99.90;;;;;;2096234;28;20028;-66
2021/05/11 04:17:23;;;;;;;3.03;2.78;;;16.90;99.90;;;;;;2096188;28;20028;-67
2021/05/11 04:18:24;;;;;;;4.20;3.80;;;16.80;99.90;;;;;;2092765;28;20044;-67
2021/05/11 04:19:24;;;;;;;3.20;3.00;;;16.90;99.90;;;;;;2087875;28;20735;-66
2021/05/11 04:20:25;;;;;;;3.97;2.88;;;16.90;99.90;;;;;;2088039;28;20117;-67
2021/05/11 04:21:26;;;;;;;3.60;3.30;;;16.90;99.90;;;;;;2087795;28;20481;-66
2021/05/11 04:22:26;;;;;;;4.32;3.65;;;16.90;99.90;;;;;;2090106;28;20044;-66
2021/05/11 04:23:27;;;;;;;3.28;3.08;;;16.90;99.90;;;;;;2090746;28;20060;-66
2021/05/11 04:24:28;;;;;;;3.88;3.58;;;16.90;99.90;;;;;;2093361;28;20024;-66
2021/05/11 04:25:29;;;;;;;4.55;3.83;;;17.00;99.90;;;;;;2093361;28;20123;-66
2021/05/11 04:26:32;;;;;;;3.85;3.55;;;16.90;99.90;;;;;;2092016;28;20060;-66
2021/05/11 04:27:32;;;;;;;4.20;3.80;;;17.00;99.90;;;;;;2088028;28;20037;-66
2021/05/11 04:28:33;;;;;;;4.32;3.92;;;17.00;99.90;;;;;;2088007;28;20017;-66
2021/05/11 04:29:34;;;;;;;3.55;3.25;;;17.00;99.90;;;;;;2087768;28;20381;-66
2021/05/11 04:30:35;;;;;;;3.03;2.80;;;17.00;99.90;;;;;;2095243;28;20028;-66
2021/05/11 04:31:37;;;;;;;4.10;3.30;;;17.00;99.90;;;;;;2093284;28;20127;-66
2021/05/11 04:32:38;;;;;;;4.18;3.80;;;17.00;99.90;;;;;;2092506;28;20043;-67
2021/05/11 04:33:39;;;;;;;3.33;3.03;;;17.00;99.90;;;;;;2089641;28;20053;-66
2021/05/11 04:34:39;;;;;;;3.20;2.92;;;17.00;99.90;;;;;;2087173;28;20013;-66
2021/05/11 04:35:40;;;;;;;4.50;3.17;;;17.00;99.90;;;;;;2092326;28;20028;-66
2021/05/11 04:36:41;;;;;;;3.90;3.60;;;17.00;99.90;;;;;;2095949;28;20024;-66
2021/05/11 04:37:41;;;;;;;4.07;3.67;;;17.00;99.90;;;;;;2093729;28;20047;-66
2021/05/11 04:38:43;;;;;;;4.00;3.70;;;17.00;99.90;;;;;;2095105;28;20476;-67
2021/05/11 04:39:44;;;;;;;4.68;4.13;;;17.00;99.90;;;;;;2095693;28;20044;-67
2021/05/11 04:40:45;;;;;;;4.97;4.57;;;17.00;99.90;;;;;;2095558;28;20016;-67
2021/05/11 04:41:46;;;;;;;3.88;3.47;;;17.00;99.90;;;;;;2087810;28;20051;-66
2021/05/11 04:42:46;;;;;;;4.28;3.80;;;17.00;99.90;;;;;;2095006;28;20091;-66
2021/05/11 04:43:48;;;;;;;5.68;4.28;;;17.00;99.90;;;;;;2095500;28;20020;-66
2021/05/11 04:44:52;;;;;;;4.57;4.18;;;17.00;99.90;;;;;;2088503;28;20033;-66
2021/05/11 04:46:05;;;;;;;4.75;4.25;;;17.10;99.90;;;;;;2088116;28;20067;-66
2021/05/11 04:47:18;;;;;;;5.28;4.32;;;17.10;99.90;;;;;;2087447;28;20559;-66
2021/05/11 04:48:18;;;;;;;4.57;4.10;;;17.00;99.90;;;;;;2090322;28;20042;-66
2021/05/11 04:49:19;;;;;;;3.80;3.50;;;17.00;99.90;;;;;;2095072;28;20027;-66
2021/05/11 04:50:24;;;;;;;4.70;4.22;;;17.00;99.90;;;;;;2097385;28;20028;-66
2021/05/11 04:51:24;;;;;;;3.92;3.72;;;17.00;99.90;;;;;;2091221;28;20019;-66
2021/05/11 04:52:25;;;;;;;4.18;3.88;;;17.00;99.90;;;;;;2088882;28;20029;-66
2021/05/11 04:53:26;;;;;;;5.40;4.28;;;17.10;99.90;;;;;;2089991;28;20035;-66
2021/05/11 04:54:26;;;;;;;5.03;4.63;;;17.10;99.90;;;;;;2090282;28;20021;-66
2021/05/11 04:55:27;;;;;;;5.20;3.78;;;17.10;99.90;;;;;;2090877;28;20021;-66
2021/05/11 04:56:28;;;;;;;5.22;4.03;;;17.10;99.90;;;;;;2089794;28;20020;-66
2021/05/11 04:57:28;;;;;;;4.05;3.67;;;17.10;99.90;;;;;;2089630;28;20127;-66
2021/05/11 04:58:29;;;;;;;4.57;4.18;;;17.10;99.90;;;;;;2092367;28;20020;-66
2021/05/11 04:59:29;;;;;;;5.53;4.20;;;17.10;99.90;;;;;;2093811;28;20025;-66
2021/05/11 05:00:30;;;;;;;4.38;4.07;;;17.10;99.90;;;;;;2092155;28;20058;-66
2021/05/11 05:01:30;;;;;;;5.07;4.68;;;17.10;99.90;;;;;;2089902;28;20020;-66
2021/05/11 05:02:33;;;;;;;4.75;4.38;;;17.10;99.90;;;;;;2086416;28;20090;-66
2021/05/11 05:03:40;;;;;;;5.55;4.50;;;17.10;99.90;;;;;;2088195;28;20027;-66
2021/05/11 05:04:40;;;;;;;4.93;4.38;;;17.10;99.90;;;;;;2088212;28;20025;-66
2021/05/11 05:05:43;;;;;;;5.13;4.63;;;17.00;99.90;;;;;;2089881;28;20037;-66
2021/05/11 05:06:44;;;;;;;6.15;4.20;;;17.10;99.90;;;;;;2095201;28;20028;-66
2021/05/11 05:07:44;;;;;;;4.22;3.90;;;17.10;99.90;;;;;;2094730;28;20111;-66
2021/05/11 05:08:45;;;;;;;4.93;4.18;;;17.00;99.90;;;;;;2092000;28;20025;-66
2021/05/11 05:09:45;;;;;;;4.57;4.13;;;17.10;99.90;;;;;;2095256;28;20420;-67
2021/05/11 05:10:46;;;;;;;4.05;3.65;;;17.10;99.90;;;;;;2095359;28;20099;-66
2021/05/11 05:11:47;;;;;;;3.83;3.42;;;17.10;99.90;;;;;;2093407;28;20023;-66
2021/05/11 05:12:47;;;;;;;4.22;3.83;;;17.10;99.90;;;;;;2094919;28;20016;-66
2021/05/11 05:13:48;;;;;;;5.25;4.03;;;17.10;99.90;;;;;;2087895;28;20021;-66
2021/05/11 05:14:49;;;;;;;6.63;3.95;;;17.10;99.90;;;;;;2095365;28;20054;-66
2021/05/11 05:15:53;;;;;;;5.60;4.38;;;17.10;99.90;;;;;;2095353;28;20074;-66
2021/05/11 05:16:54;;;;;;;5.07;4.57;;;17.10;99.90;;;;;;2092668;28;20013;-66
2021/05/11 05:17:54;;;;;;;6.10;4.07;;;17.10;99.90;;;;;;2095337;28;20113;-66
2021/05/11 05:18:55;;;;;;;4.63;4.22;;;17.10;99.90;;;;;;2095788;28;20071;-66
2021/05/11 05:19:55;;;;;;;5.30;4.88;;;17.10;99.90;;;;;;2094797;28;20527;-66
2021/05/11 05:20:56;;;;;;;4.70;4.30;;;17.10;99.90;;;;;;2095759;28;20028;-66
2021/05/11 05:21:57;;;;;;;6.22;4.65;;;17.10;99.90;;;;;;2090853;28;20053;-66
2021/05/11 05:22:57;;;;;;;5.00;4.50;;;17.20;99.90;;;;;;2094499;28;20028;-66
2021/05/11 05:24:21;;;;;;;4.70;4.22;;;17.20;99.90;;;;;;2095312;28;20702;-66
2021/05/11 05:25:26;;;;;;;5.10;4.60;;;17.20;99.90;;;;;;2092825;28;20029;-66
2021/05/11 05:26:29;;;;;;;4.78;4.35;;;17.10;99.90;;;;;;2093189;28;20543;-66
2021/05/11 05:28:48;;;;;;;5.30;4.75;;;17.10;99.90;;;;;;2095602;28;20026;-66
2021/05/11 05:29:49;;;;;;;5.10;4.60;;;17.10;99.90;;;;;;2094631;28;20044;-66
2021/05/11 05:30:50;;;;;;;5.07;4.57;;;17.10;99.90;;;;;;2093765;28;20025;-66
2021/05/11 05:31:50;;;;;;;4.78;4.32;;;17.10;99.90;;;;;;2094146;28;20408;-68
2021/05/11 05:32:57;;;;;;;5.70;4.85;;;17.10;99.90;;;;;;2092822;28;20070;-66
2021/05/11 05:33:58;;;;;;;5.50;4.80;;;17.20;99.90;;;;;;2092637;28;20048;-66
2021/05/11 05:34:58;;;;;;;5.25;4.75;;;17.20;99.90;;;;;;2091144;28;20100;-66
2021/05/11 05:35:59;;;;;;;4.82;4.15;;;17.20;99.90;;;;;;2093509;28;20020;-66
2021/05/11 05:37:00;;;;;;;4.05;3.80;;;17.20;99.90;;;;;;2088805;28;20140;-66
2021/05/11 05:38:00;;;;;;;4.55;3.95;;;17.20;99.90;;;;;;2091998;28;20013;-66
2021/05/11 05:39:01;;;;;;;6.13;4.18;;;17.20;99.90;;;;;;2095144;28;20107;-66
2021/05/11 05:40:05;;;;;;;5.65;4.55;;;17.20;99.90;;;;;;2094939;28;20025;-66
2021/05/11 05:41:10;;;;;;;5.22;4.65;;;17.20;99.90;;;;;;2091582;28;20065;-66
2021/05/11 05:42:11;;;;;;;5.82;4.30;;;17.20;99.90;;;;;;2094523;28;20112;-66
2021/05/11 05:43:11;;;;;;;5.07;4.05;;;17.20;99.90;;;;;;2090644;28;20021;-66
2021/05/11 05:44:12;;;;;;;5.63;4.90;;;17.20;99.90;;;;;;2094693;28;20017;-66
2021/05/11 05:45:13;;;;;;;4.43;4.00;;;17.30;99.90;;;;;;2095274;28;20021;-66
2021/05/11 05:46:14;;;;;;;5.65;4.13;;;17.30;99.90;;;;;;2093161;28;20027;-66
2021/05/11 05:47:17;;;;;;;6.57;5.22;;;17.30;99.90;;;;;;2094371;28;20020;-66
2021/05/11 05:48:17;;;;;;;4.93;4.40;;;17.30;99.90;;;;;;2091234;28;20476;-66
2021/05/11 05:49:19;;;;;;;5.88;4.43;;;17.30;99.90;;;;;;2095029;28;20360;-66
2021/05/11 05:50:29;;;;;;;5.00;4.50;;;17.40;99.90;;;;;;2095275;28;20827;-67
2021/05/11 05:51:29;;;;;;;6.47;4.88;;;17.30;99.90;;;;;;2092862;28;20436;-66
2021/05/11 05:52:40;;;;;;;6.57;5.00;;;17.30;99.90;;;;;;2094577;28;20063;-66
2021/05/11 05:53:42;;;;;;;5.30;4.28;;;17.40;99.90;;;;;;2095335;28;20486;-66
2021/05/11 05:54:44;;;;;;;5.65;4.85;;;17.40;99.90;;;;;;2095390;28;20050;-67
2021/05/11 05:55:44;;;;;;;6.90;4.65;;;17.40;99.90;;;;;;2090579;28;20031;-66
2021/05/11 05:56:45;;;;;;;6.30;5.13;;;17.40;99.90;;;;;;2094904;28;20039;-66
2021/05/11 05:57:45;;;;;;;6.05;5.10;;;17.50;99.90;;;;;;2094519;28;20039;-66
2021/05/11 05:58:46;;;;;;;6.72;5.10;;;17.40;99.90;;;;;;2093713;28;20433;-66
2021/05/11 05:59:47;;;;;;;5.68;4.93;;;17.50;99.90;;;;;;2096222;28;20081;-66
2021/05/11 06:00:52;;;;;;;6.55;5.43;;;17.50;99.90;;;;;;2089552;28;20017;-66
2021/05/11 06:01:53;;;;;;;8.60;5.95;;;17.50;99.90;;;;;;2094785;28;20612;-66
2021/05/11 06:02:55;;;;;;;6.20;5.55;;;17.50;99.90;;;;;;2096576;28;20095;-66
2021/05/11 06:04:13;;;;;;;6.35;5.47;;;17.50;99.90;;;;;;2094101;28;20039;-66
2021/05/11 06:05:14;;;;;;;6.13;5.63;;;17.50;99.90;;;;;;2095443;28;20113;-66
2021/05/11 06:06:15;;;;;;;7.28;6.57;;;17.50;99.90;;;;;;2097037;28;20362;-66
2021/05/11 06:07:16;;;;;;;7.53;6.32;;;17.50;99.90;;;;;;2095835;28;20078;-66
2021/05/11 06:08:16;;;;;;;7.47;6.50;;;17.50;99.90;;;;;;2097041;28;20021;-66
2021/05/11 06:09:20;;;;;;;9.50;6.60;;;17.50;99.90;;;;;;2092669;28;20019;-66
2021/05/11 06:10:20;;;;;;;7.82;6.93;;;17.50;99.90;;;;;;2096656;28;20036;-66
2021/05/11 06:12:49;;;;;;;6.88;5.97;;;17.50;99.90;;;;;;2095976;28;20112;-66
2021/05/11 06:14:11;;;;;;;10.75;6.50;;;17.50;99.90;;;;;;2091568;28;20575;-66
2021/05/11 06:17:30;;;;;;;6.88;5.82;;;17.50;99.90;;;;;;2094869;28;20071;-66
2021/05/11 06:18:30;;;;;;;7.40;6.25;;;17.40;99.90;;;;;;2096803;28;20032;-66
2021/05/11 06:19:31;;;;;;;6.35;5.75;;;17.50;99.90;;;;;;2097254;28;20465;-66
2021/05/11 06:20:32;;;;;;;6.40;5.80;;;17.50;99.90;;;;;;2095482;28;20028;-66
2021/05/11 06:21:32;;;;;;;5.68;5.18;;;17.50;99.90;;;;;;2093399;28;20074;-66
2021/05/11 06:22:33;;;;;;;6.63;5.78;;;17.50;99.90;;;;;;2093094;28;20096;-66